Time;durP1;ratioP1;P1;durP2;ratioP2;P2;SDS_P1;SDS_P2;PMS_P1;PMS_P2;Temp;Humidity;BMP_temperature;BMP_pressure;BME280_temperature;BME280_humidity;BME280_pressure;Samples;Min_cycle;Max_cycle;Signal;HPM_P1;HPM_P2
2022/12/31 00:00:22;;;;;;;55.50;39.00;;;;;;;;;;5058716;28;20185;-76
2022/12/31 00:02:48;;;;;;;59.60;37.77;;;;;;;;;;5061445;28;20250;-77
2022/12/31 00:05:14;;;;;;;59.90;40.43;;;;;;;;;;5034804;28;20524;-75
2022/12/31 00:07:40;;;;;;;62.73;39.83;;;;;;;;;;5046197;28;20201;-76
2022/12/31 00:10:06;;;;;;;63.43;41.13;;;;;;;;;;5049394;28;20245;-76
2022/12/31 00:12:32;;;;;;;56.00;39.93;;;;;;;;;;5045629;28;20178;-76
2022/12/31 00:14:58;;;;;;;62.00;39.43;;;;;;;;;;5045306;28;20240;-76
2022/12/31 00:17:24;;;;;;;55.87;40.27;;;;;;;;;;5041506;28;20182;-76
2022/12/31 00:19:50;;;;;;;63.73;42.50;;;;;;;;;;5033928;28;20187;-76
2022/12/31 00:22:31;;;;;;;63.53;41.47;;;;;;;;;;5037076;28;20204;-76
2022/12/31 00:24:57;;;;;;;62.97;41.97;;;;;;;;;;5043144;28;20186;-76
2022/12/31 00:27:23;;;;;;;58.53;40.03;;;;;;;;;;5046036;28;20235;-76
2022/12/31 00:29:49;;;;;;;55.00;39.83;;;;;;;;;;5050005;28;20213;-76
2022/12/31 00:32:15;;;;;;;59.13;39.37;;;;;;;;;;5050900;28;20178;-75
2022/12/31 00:34:41;;;;;;;59.80;41.27;;;;;;;;;;5047389;28;20213;-76
2022/12/31 00:37:07;;;;;;;59.87;39.83;;;;;;;;;;5050307;28;20209;-76
2022/12/31 00:39:33;;;;;;;57.70;38.80;;;;;;;;;;5049358;28;20316;-76
2022/12/31 00:41:59;;;;;;;54.87;38.63;;;;;;;;;;5059195;28;20198;-76
2022/12/31 00:44:25;;;;;;;58.50;40.53;;;;;;;;;;5049404;28;20235;-76
2022/12/31 00:46:51;;;;;;;51.17;36.30;;;;;;;;;;5047034;28;20264;-76
2022/12/31 00:49:17;;;;;;;56.23;36.67;;;;;;;;;;5048808;28;20190;-76
2022/12/31 00:51:45;;;;;;;59.30;39.20;;;;;;;;;;5048100;28;20204;-76
2022/12/31 00:54:11;;;;;;;51.53;36.37;;;;;;;;;;5048171;28;20196;-76
2022/12/31 00:56:37;;;;;;;53.07;36.87;;;;;;;;;;5051700;28;20174;-77
2022/12/31 00:59:03;;;;;;;53.03;36.03;;;;;;;;;;5043428;28;20198;-77
2022/12/31 01:01:34;;;;;;;51.10;36.17;;;;;;;;;;5046464;28;20839;-77
2022/12/31 01:04:11;;;;;;;49.80;35.40;;;;;;;;;;5057224;28;20205;-77
2022/12/31 01:06:38;;;;;;;47.43;34.20;;;;;;;;;;5045535;28;20624;-77
2022/12/31 01:09:05;;;;;;;52.93;35.07;;;;;;;;;;5072133;28;20658;-76
2022/12/31 01:11:31;;;;;;;48.63;34.83;;;;;;;;;;5046675;28;20212;-76
2022/12/31 01:14:01;;;;;;;51.23;33.17;;;;;;;;;;5049637;28;20196;-76
2022/12/31 01:16:28;;;;;;;49.13;32.77;;;;;;;;;;5052722;28;20292;-76
2022/12/31 01:18:54;;;;;;;47.93;34.03;;;;;;;;;;5048818;28;20186;-76
2022/12/31 01:21:21;;;;;;;53.83;33.43;;;;;;;;;;5046015;28;20192;-76
2022/12/31 01:23:47;;;;;;;44.00;32.27;;;;;;;;;;5049900;28;20204;-76
2022/12/31 01:26:14;;;;;;;42.90;32.30;;;;;;;;;;5049006;28;20182;-76
2022/12/31 01:28:40;;;;;;;44.80;32.03;;;;;;;;;;5049223;28;20937;-76
2022/12/31 01:31:07;;;;;;;46.50;32.17;;;;;;;;;;5048042;28;20362;-76
2022/12/31 01:33:34;;;;;;;47.53;32.77;;;;;;;;;;5055604;28;20802;-76
2022/12/31 01:36:26;;;;;;;42.53;30.30;;;;;;;;;;5047293;28;20178;-76
2022/12/31 01:38:53;;;;;;;43.37;30.80;;;;;;;;;;5042129;28;20189;-76
2022/12/31 01:41:21;;;;;;;45.67;31.37;;;;;;;;;;5034476;28;20197;-76
2022/12/31 01:43:55;;;;;;;42.10;29.40;;;;;;;;;;5074873;28;20198;-76
2022/12/31 01:46:36;;;;;;;46.83;32.43;;;;;;;;;;5043950;28;20191;-77
2022/12/31 01:49:20;;;;;;;42.07;29.23;;;;;;;;;;5045458;28;20186;-76
2022/12/31 01:51:49;;;;;;;42.27;29.40;;;;;;;;;;5045112;28;20206;-77
2022/12/31 01:54:16;;;;;;;41.73;29.83;;;;;;;;;;5036439;28;20193;-76
2022/12/31 01:56:44;;;;;;;42.90;30.23;;;;;;;;;;5060519;28;20654;-77
2022/12/31 01:59:10;;;;;;;36.07;26.90;;;;;;;;;;5045092;28;20653;-76
2022/12/31 02:01:37;;;;;;;36.60;26.97;;;;;;;;;;5043646;28;20235;-76
2022/12/31 02:04:06;;;;;;;41.80;28.70;;;;;;;;;;5043569;28;20267;-76
2022/12/31 02:06:36;;;;;;;42.20;29.07;;;;;;;;;;5047119;28;20237;-77
2022/12/31 02:09:02;;;;;;;37.00;28.40;;;;;;;;;;5046440;28;20189;-76
2022/12/31 02:11:30;;;;;;;41.10;27.90;;;;;;;;;;5032473;28;20218;-76
2022/12/31 02:13:57;;;;;;;39.00;28.47;;;;;;;;;;5075428;28;20566;-76
2022/12/31 02:16:23;;;;;;;39.73;28.33;;;;;;;;;;5049964;28;20186;-76
2022/12/31 02:19:07;;;;;;;37.67;27.10;;;;;;;;;;5045326;28;20178;-76
2022/12/31 02:21:52;;;;;;;41.57;28.00;;;;;;;;;;5045712;28;20193;-77
2022/12/31 02:24:18;;;;;;;43.40;27.93;;;;;;;;;;5047773;28;20186;-76
2022/12/31 02:26:56;;;;;;;40.33;27.23;;;;;;;;;;5065678;28;20543;-76
2022/12/31 02:29:32;;;;;;;37.33;26.43;;;;;;;;;;5051329;28;20221;-76
2022/12/31 02:32:07;;;;;;;36.10;25.73;;;;;;;;;;5048492;28;20339;-76
2022/12/31 02:34:36;;;;;;;37.73;24.87;;;;;;;;;;5045244;28;20203;-76
2022/12/31 02:37:04;;;;;;;39.27;25.77;;;;;;;;;;5046823;28;20185;-76
2022/12/31 02:39:31;;;;;;;38.33;24.87;;;;;;;;;;5044368;28;20194;-76
2022/12/31 02:41:57;;;;;;;34.43;24.10;;;;;;;;;;5046690;28;20188;-76
2022/12/31 02:44:34;;;;;;;33.97;24.20;;;;;;;;;;5049844;28;20177;-76
2022/12/31 02:47:06;;;;;;;30.13;23.37;;;;;;;;;;5047622;28;20838;-76
2022/12/31 02:49:51;;;;;;;33.90;23.90;;;;;;;;;;5050970;28;20196;-77
2022/12/31 02:52:36;;;;;;;31.57;22.93;;;;;;;;;;5046747;28;20189;-76
2022/12/31 02:55:16;;;;;;;32.07;22.43;;;;;;;;;;5050821;28;20220;-76
2022/12/31 02:57:55;;;;;;;31.00;22.03;;;;;;;;;;5045621;28;20185;-76
2022/12/31 03:03:07;;;;;;;29.73;20.20;;;;;;;;;;5054135;28;20595;-76
2022/12/31 03:05:36;;;;;;;30.57;20.80;;;;;;;;;;5046638;28;20177;-76
2022/12/31 03:08:01;;;;;;;26.43;19.70;;;;;;;;;;5052353;28;20178;-76
2022/12/31 03:10:27;;;;;;;25.37;19.70;;;;;;;;;;5051113;28;20209;-76
2022/12/31 03:12:53;;;;;;;28.10;19.43;;;;;;;;;;5046867;28;20778;-76
2022/12/31 03:15:30;;;;;;;25.37;18.70;;;;;;;;;;5046222;28;20216;-76
2022/12/31 03:17:59;;;;;;;26.47;18.83;;;;;;;;;;5072190;28;20200;-76
2022/12/31 03:23:13;;;;;;;25.47;18.60;;;;;;;;;;5050675;28;20263;-76
2022/12/31 03:25:39;;;;;;;24.07;18.33;;;;;;;;;;5051879;28;20193;-77
2022/12/31 03:28:07;;;;;;;24.30;17.27;;;;;;;;;;5047484;28;20234;-76
2022/12/31 03:30:34;;;;;;;22.83;16.97;;;;;;;;;;5052288;28;20267;-76
2022/12/31 03:33:00;;;;;;;21.33;16.97;;;;;;;;;;5039022;28;20182;-76
2022/12/31 03:35:28;;;;;;;28.47;17.87;;;;;;;;;;5041922;28;20181;-76
2022/12/31 03:37:55;;;;;;;25.07;17.17;;;;;;;;;;5038700;28;20256;-75
2022/12/31 03:40:22;;;;;;;22.27;16.47;;;;;;;;;;5039305;28;20189;-76
2022/12/31 03:42:48;;;;;;;23.03;17.17;;;;;;;;;;5040513;28;20642;-76
2022/12/31 03:45:15;;;;;;;21.23;15.53;;;;;;;;;;5040654;28;20196;-76
2022/12/31 03:47:41;;;;;;;24.33;15.57;;;;;;;;;;5043111;28;20189;-76
2022/12/31 03:50:08;;;;;;;20.07;14.47;;;;;;;;;;5048214;28;20181;-76
2022/12/31 03:52:34;;;;;;;18.23;14.67;;;;;;;;;;5046586;28;20196;-76
2022/12/31 03:55:03;;;;;;;17.87;14.63;;;;;;;;;;5049556;28;20235;-76
2022/12/31 03:57:29;;;;;;;19.10;14.57;;;;;;;;;;5047917;28;20193;-76
2022/12/31 03:59:55;;;;;;;18.93;15.07;;;;;;;;;;5047888;28;20899;-76
2022/12/31 04:02:21;;;;;;;20.87;14.67;;;;;;;;;;5050481;28;20660;-76
2022/12/31 04:04:47;;;;;;;19.53;14.97;;;;;;;;;;5056318;28;20196;-76
2022/12/31 04:07:13;;;;;;;21.80;15.43;;;;;;;;;;5045856;28;20188;-76
2022/12/31 04:09:39;;;;;;;21.57;15.13;;;;;;;;;;5044543;28;20193;-76
2022/12/31 04:12:05;;;;;;;19.50;14.40;;;;;;;;;;5050985;28;20664;-76
2022/12/31 04:14:31;;;;;;;21.87;15.47;;;;;;;;;;5048874;28;20177;-76
2022/12/31 04:16:57;;;;;;;21.20;15.77;;;;;;;;;;5048764;28;20239;-76
2022/12/31 04:19:23;;;;;;;23.70;16.50;;;;;;;;;;5047772;28;20196;-76
2022/12/31 04:21:49;;;;;;;21.10;14.97;;;;;;;;;;5052741;28;20200;-76
2022/12/31 04:24:15;;;;;;;20.73;14.87;;;;;;;;;;5046521;28;20182;-76
2022/12/31 04:26:42;;;;;;;25.50;16.43;;;;;;;;;;5048756;28;20169;-77
2022/12/31 04:29:09;;;;;;;22.10;16.17;;;;;;;;;;5044997;28;20178;-76
2022/12/31 04:31:35;;;;;;;21.63;15.27;;;;;;;;;;5048933;28;20823;-76
2022/12/31 04:34:01;;;;;;;22.27;15.63;;;;;;;;;;5047326;28;20554;-76
2022/12/31 04:36:27;;;;;;;22.80;16.17;;;;;;;;;;5047565;28;20194;-76
2022/12/31 04:38:53;;;;;;;22.77;16.57;;;;;;;;;;5051605;28;20174;-76
2022/12/31 04:41:19;;;;;;;19.93;15.73;;;;;;;;;;5044530;28;20196;-76
2022/12/31 04:43:48;;;;;;;20.97;15.17;;;;;;;;;;5052020;28;20814;-76
2022/12/31 04:46:15;;;;;;;23.37;16.07;;;;;;;;;;5049106;28;20276;-76
2022/12/31 04:48:41;;;;;;;23.53;16.23;;;;;;;;;;5043908;28;21493;-76
2022/12/31 04:51:07;;;;;;;24.33;17.43;;;;;;;;;;5041500;28;20208;-76
2022/12/31 04:53:33;;;;;;;23.07;16.27;;;;;;;;;;5048974;28;20209;-77
2022/12/31 04:55:59;;;;;;;21.53;15.63;;;;;;;;;;5048232;28;20196;-77
2022/12/31 04:58:25;;;;;;;24.80;16.70;;;;;;;;;;5042341;28;20189;-76
2022/12/31 05:00:53;;;;;;;22.80;16.50;;;;;;;;;;5047995;28;20281;-76
2022/12/31 05:03:19;;;;;;;23.10;17.10;;;;;;;;;;5044120;28;20178;-77
2022/12/31 05:05:46;;;;;;;22.00;15.77;;;;;;;;;;5071946;28;20185;-76
2022/12/31 05:08:12;;;;;;;24.17;16.37;;;;;;;;;;5038513;28;20235;-76
2022/12/31 05:10:42;;;;;;;23.90;17.50;;;;;;;;;;5050835;28;20319;-76
2022/12/31 05:13:09;;;;;;;23.43;16.80;;;;;;;;;;5051683;28;20596;-76
2022/12/31 05:15:35;;;;;;;20.60;15.80;;;;;;;;;;5045383;28;20836;-77
2022/12/31 05:18:01;;;;;;;22.07;17.43;;;;;;;;;;5052472;28;20181;-76
2022/12/31 05:20:27;;;;;;;23.97;16.87;;;;;;;;;;5053008;28;20185;-77
2022/12/31 05:22:53;;;;;;;23.70;17.50;;;;;;;;;;5044742;28;20198;-76
2022/12/31 05:25:19;;;;;;;23.33;16.60;;;;;;;;;;5049944;28;20242;-76
2022/12/31 05:27:45;;;;;;;25.77;17.93;;;;;;;;;;5040027;28;20192;-77
2022/12/31 05:30:11;;;;;;;20.00;16.13;;;;;;;;;;5039546;28;20592;-77
2022/12/31 05:32:37;;;;;;;23.77;16.27;;;;;;;;;;5041877;28;20276;-76
2022/12/31 05:35:04;;;;;;;20.60;15.13;;;;;;;;;;5042155;28;20357;-77
2022/12/31 05:37:30;;;;;;;21.57;15.77;;;;;;;;;;5051026;28;20269;-76
2022/12/31 05:39:56;;;;;;;22.70;16.73;;;;;;;;;;5045965;28;20208;-76
2022/12/31 05:42:22;;;;;;;20.30;15.03;;;;;;;;;;5042238;28;20201;-76
2022/12/31 05:44:49;;;;;;;23.83;15.43;;;;;;;;;;5045152;28;20280;-77
2022/12/31 05:47:15;;;;;;;22.63;15.73;;;;;;;;;;5051873;28;20212;-76
2022/12/31 05:49:41;;;;;;;22.00;16.10;;;;;;;;;;5046651;28;20787;-76
2022/12/31 05:52:07;;;;;;;20.40;15.93;;;;;;;;;;5049546;28;20209;-77
2022/12/31 05:54:33;;;;;;;20.73;15.30;;;;;;;;;;5042442;28;20607;-76
2022/12/31 05:56:59;;;;;;;21.03;14.00;;;;;;;;;;5044534;28;20182;-77
2022/12/31 05:59:25;;;;;;;20.23;14.83;;;;;;;;;;5049851;28;20180;-76
2022/12/31 06:01:51;;;;;;;20.33;15.03;;;;;;;;;;5044954;28;20197;-77
2022/12/31 06:04:17;;;;;;;20.63;15.87;;;;;;;;;;5040300;28;20185;-75
2022/12/31 06:06:43;;;;;;;22.33;15.33;;;;;;;;;;5044023;28;20787;-76
2022/12/31 06:09:09;;;;;;;18.03;13.77;;;;;;;;;;5042517;28;20185;-77
2022/12/31 06:11:35;;;;;;;20.57;15.87;;;;;;;;;;5044051;28;20678;-76
2022/12/31 06:14:01;;;;;;;19.47;15.00;;;;;;;;;;5041610;28;20359;-76
2022/12/31 06:16:27;;;;;;;21.00;14.33;;;;;;;;;;5040222;28;20815;-76
2022/12/31 06:18:53;;;;;;;21.60;14.50;;;;;;;;;;5043709;28;20177;-76
2022/12/31 06:21:20;;;;;;;21.97;14.83;;;;;;;;;;5044932;28;20371;-77
2022/12/31 06:23:46;;;;;;;19.03;14.80;;;;;;;;;;5041772;28;20264;-75
2022/12/31 06:26:12;;;;;;;21.93;15.83;;;;;;;;;;5040305;28;20182;-76
2022/12/31 06:28:38;;;;;;;17.73;14.20;;;;;;;;;;5042620;28;20223;-76
2022/12/31 06:31:05;;;;;;;23.23;14.53;;;;;;;;;;5049929;28;20891;-76
2022/12/31 06:33:31;;;;;;;22.40;14.77;;;;;;;;;;5038219;28;20645;-77
2022/12/31 06:35:57;;;;;;;20.23;14.97;;;;;;;;;;5049967;28;20182;-78
2022/12/31 06:38:24;;;;;;;17.57;13.50;;;;;;;;;;5037713;28;20229;-78
2022/12/31 06:40:50;;;;;;;18.80;14.30;;;;;;;;;;5041409;28;20884;-78
2022/12/31 06:43:16;;;;;;;17.90;13.50;;;;;;;;;;5042655;28;20654;-78
2022/12/31 06:45:42;;;;;;;17.37;13.37;;;;;;;;;;5052540;28;20219;-77
2022/12/31 06:48:08;;;;;;;19.70;14.40;;;;;;;;;;5049204;28;20231;-78
2022/12/31 06:50:34;;;;;;;18.73;13.80;;;;;;;;;;5051999;28;20729;-78
2022/12/31 06:53:00;;;;;;;17.03;13.37;;;;;;;;;;5044165;28;20186;-78
2022/12/31 06:55:26;;;;;;;17.03;12.77;;;;;;;;;;5041582;28;20920;-78
2022/12/31 06:57:53;;;;;;;16.40;12.70;;;;;;;;;;5049083;28;20186;-78
2022/12/31 07:00:19;;;;;;;19.60;13.07;;;;;;;;;;5051276;28;20173;-78
2022/12/31 07:03:03;;;;;;;15.63;12.30;;;;;;;;;;5050805;28;20207;-78
2022/12/31 07:05:41;;;;;;;17.67;13.27;;;;;;;;;;5043102;28;20192;-78
2022/12/31 07:08:26;;;;;;;15.30;12.13;;;;;;;;;;5048761;28;20633;-78
2022/12/31 07:10:55;;;;;;;21.40;14.10;;;;;;;;;;5042697;28;20237;-78
2022/12/31 07:13:24;;;;;;;15.97;12.57;;;;;;;;;;5046551;28;20243;-78
2022/12/31 07:16:02;;;;;;;16.93;12.40;;;;;;;;;;5044873;28;20194;-78
2022/12/31 07:18:51;;;;;;;17.73;12.57;;;;;;;;;;5048758;28;20196;-78
2022/12/31 07:21:18;;;;;;;19.03;12.30;;;;;;;;;;5031014;28;20305;-78
2022/12/31 07:23:45;;;;;;;16.27;12.80;;;;;;;;;;5049216;28;20545;-79
2022/12/31 07:26:34;;;;;;;15.90;11.37;;;;;;;;;;5030103;28;20193;-78
2022/12/31 07:29:05;;;;;;;15.07;11.43;;;;;;;;;;5029710;28;20345;-77
2022/12/31 07:31:34;;;;;;;15.57;11.47;;;;;;;;;;5029327;28;20217;-79
2022/12/31 07:34:07;;;;;;;15.03;10.57;;;;;;;;;;5041141;28;20185;-77
2022/12/31 07:36:51;;;;;;;14.87;11.10;;;;;;;;;;5054794;28;22202;-76
2022/12/31 07:39:28;;;;;;;13.70;10.47;;;;;;;;;;5049958;28;20189;-78
2022/12/31 07:42:12;;;;;;;14.60;10.70;;;;;;;;;;5056869;28;20203;-76
2022/12/31 07:44:50;;;;;;;14.47;10.97;;;;;;;;;;5042943;28;20189;-76
2022/12/31 07:47:20;;;;;;;14.00;10.37;;;;;;;;;;5033279;28;20188;-76
2022/12/31 07:49:47;;;;;;;13.83;10.57;;;;;;;;;;5027270;28;20635;-76
2022/12/31 07:52:13;;;;;;;14.10;10.10;;;;;;;;;;5045456;28;20272;-76
2022/12/31 07:54:39;;;;;;;13.93;10.37;;;;;;;;;;5039996;28;20201;-76
2022/12/31 07:57:05;;;;;;;14.73;10.53;;;;;;;;;;5029133;28;20181;-76
2022/12/31 07:59:40;;;;;;;13.73;10.33;;;;;;;;;;5044214;28;20197;-77
2022/12/31 08:02:13;;;;;;;10.63;9.07;;;;;;;;;;5034798;28;20188;-76
2022/12/31 08:04:38;;;;;;;14.00;9.10;;;;;;;;;;5036925;28;20297;-75
2022/12/31 08:07:16;;;;;;;14.53;10.33;;;;;;;;;;5044364;28;20185;-77
2022/12/31 08:09:48;;;;;;;11.20;9.43;;;;;;;;;;5039390;28;20211;-78
2022/12/31 08:12:15;;;;;;;11.87;9.17;;;;;;;;;;5040355;28;20219;-78
2022/12/31 08:14:45;;;;;;;12.93;9.40;;;;;;;;;;5040875;28;20192;-76
2022/12/31 08:17:15;;;;;;;11.57;9.07;;;;;;;;;;5043319;28;20213;-79
2022/12/31 08:19:41;;;;;;;10.50;8.37;;;;;;;;;;5046982;28;20566;-76
2022/12/31 08:22:26;;;;;;;11.83;9.33;;;;;;;;;;5055186;28;20238;-76
2022/12/31 08:25:07;;;;;;;13.13;9.13;;;;;;;;;;5050847;28;20269;-76
2022/12/31 08:27:36;;;;;;;11.00;8.50;;;;;;;;;;5039510;28;20186;-76
2022/12/31 08:30:16;;;;;;;10.83;9.03;;;;;;;;;;5040937;28;20229;-78
2022/12/31 08:32:54;;;;;;;10.70;9.03;;;;;;;;;;5041848;28;20200;-78
2022/12/31 08:35:23;;;;;;;11.20;9.07;;;;;;;;;;5040915;28;20590;-78
2022/12/31 08:37:53;;;;;;;12.57;8.70;;;;;;;;;;5044193;28;20231;-78
2022/12/31 08:40:34;;;;;;;9.57;8.00;;;;;;;;;;5046093;28;20196;-78
2022/12/31 08:43:06;;;;;;;12.77;8.60;;;;;;;;;;5043076;28;20217;-77
2022/12/31 08:45:37;;;;;;;11.43;8.17;;;;;;;;;;5042058;28;20166;-78
2022/12/31 08:48:22;;;;;;;11.50;8.43;;;;;;;;;;5040021;28;20280;-78
2022/12/31 08:50:48;;;;;;;13.80;8.77;;;;;;;;;;5040720;28;20312;-77
2022/12/31 08:53:14;;;;;;;11.93;7.90;;;;;;;;;;5045811;28;20223;-80
2022/12/31 08:55:41;;;;;;;9.30;8.20;;;;;;;;;;5044942;28;20271;-78
2022/12/31 08:58:13;;;;;;;9.80;8.70;;;;;;;;;;5051155;28;20268;-77
2022/12/31 09:00:40;;;;;;;9.17;7.90;;;;;;;;;;5045799;28;20205;-78
2022/12/31 09:03:09;;;;;;;10.83;8.07;;;;;;;;;;5050590;28;20263;-77
2022/12/31 09:05:58;;;;;;;8.43;7.17;;;;;;;;;;5046052;28;20645;-78
2022/12/31 09:08:43;;;;;;;8.60;6.90;;;;;;;;;;5045184;28;20200;-78
2022/12/31 09:11:15;;;;;;;9.67;7.97;;;;;;;;;;5043628;28;20204;-78
2022/12/31 09:13:50;;;;;;;11.47;8.03;;;;;;;;;;5042820;28;20753;-78
2022/12/31 09:16:28;;;;;;;10.63;8.13;;;;;;;;;;5041500;28;20181;-78
2022/12/31 09:18:54;;;;;;;9.63;8.17;;;;;;;;;;5039942;28;20359;-78
2022/12/31 09:21:20;;;;;;;10.87;7.97;;;;;;;;;;5042250;28;20702;-79
2022/12/31 09:23:47;;;;;;;9.27;7.90;;;;;;;;;;5039908;28;20297;-76
2022/12/31 09:26:21;;;;;;;10.50;7.73;;;;;;;;;;5035583;28;20217;-78
2022/12/31 09:29:08;;;;;;;11.70;8.07;;;;;;;;;;5045060;28;20190;-76
2022/12/31 09:31:48;;;;;;;9.17;7.37;;;;;;;;;;5054442;28;20244;-78
2022/12/31 09:34:20;;;;;;;8.77;7.03;;;;;;;;;;5046094;28;20178;-78
2022/12/31 09:36:48;;;;;;;8.93;6.93;;;;;;;;;;5041196;28;20406;-79
2022/12/31 09:39:33;;;;;;;8.57;6.83;;;;;;;;;;5053095;28;20216;-78
2022/12/31 09:41:59;;;;;;;7.97;6.77;;;;;;;;;;5046586;28;20287;-78
2022/12/31 09:44:30;;;;;;;8.80;7.50;;;;;;;;;;5043401;28;20184;-79
2022/12/31 09:47:03;;;;;;;10.23;7.37;;;;;;;;;;5044193;28;20934;-79
2022/12/31 09:49:47;;;;;;;9.70;7.30;;;;;;;;;;5042139;28;20243;-77
2022/12/31 09:52:25;;;;;;;9.00;7.00;;;;;;;;;;5044813;28;20292;-80
2022/12/31 09:54:52;;;;;;;11.53;7.83;;;;;;;;;;5048013;28;20189;-79
2022/12/31 09:57:29;;;;;;;9.47;7.00;;;;;;;;;;5053851;28;20177;-79
2022/12/31 10:00:01;;;;;;;8.83;7.07;;;;;;;;;;5041498;28;20268;-78
2022/12/31 10:02:30;;;;;;;8.40;6.90;;;;;;;;;;5050781;28;20312;-78
2022/12/31 10:04:59;;;;;;;7.80;6.93;;;;;;;;;;5048038;28;20186;-77
2022/12/31 10:07:31;;;;;;;8.50;6.70;;;;;;;;;;5046213;28;20185;-79
2022/12/31 10:10:03;;;;;;;7.57;6.57;;;;;;;;;;5043925;28;20285;-77
2022/12/31 10:12:46;;;;;;;8.23;7.03;;;;;;;;;;5054120;28;20291;-77
2022/12/31 10:15:33;;;;;;;9.43;6.83;;;;;;;;;;5048679;28;20185;-79
2022/12/31 10:17:59;;;;;;;9.17;6.57;;;;;;;;;;5050263;28;20193;-78
2022/12/31 10:20:43;;;;;;;9.23;7.00;;;;;;;;;;5045665;28;20185;-80
2022/12/31 10:23:28;;;;;;;8.60;6.80;;;;;;;;;;5046446;28;20186;-79
2022/12/31 10:26:20;;;;;;;7.70;6.90;;;;;;;;;;5039542;28;20204;-77
2022/12/31 10:28:46;;;;;;;7.83;6.00;;;;;;;;;;5046224;28;20294;-79
2022/12/31 10:31:14;;;;;;;6.73;5.80;;;;;;;;;;5043902;28;20229;-77
2022/12/31 10:33:40;;;;;;;8.23;6.33;;;;;;;;;;5050434;28;20185;-79
2022/12/31 10:36:08;;;;;;;7.70;5.93;;;;;;;;;;5049355;28;20231;-78
2022/12/31 10:39:07;;;;;;;9.47;6.03;;;;;;;;;;5043620;28;20342;-82
2022/12/31 10:41:41;;;;;;;8.27;5.73;;;;;;;;;;5016080;28;20229;-80
2022/12/31 10:44:07;;;;;;;6.57;5.90;;;;;;;;;;5003419;28;20193;-79
2022/12/31 10:46:52;;;;;;;7.27;5.87;;;;;;;;;;5019641;28;20194;-79
2022/12/31 10:49:24;;;;;;;7.70;5.83;;;;;;;;;;5014796;28;20178;-79
2022/12/31 10:52:13;;;;;;;8.27;6.17;;;;;;;;;;5015863;28;20218;-78
2022/12/31 10:54:54;;;;;;;6.53;5.40;;;;;;;;;;4939348;28;20204;-80
2022/12/31 10:57:35;;;;;;;7.17;6.10;;;;;;;;;;4925394;28;20192;-78
2022/12/31 11:00:09;;;;;;;6.40;5.80;;;;;;;;;;4940409;28;20220;-79
2022/12/31 11:02:41;;;;;;;7.07;5.80;;;;;;;;;;4931849;28;20191;-78
2022/12/31 11:05:07;;;;;;;9.00;6.20;;;;;;;;;;4939924;28;20283;-78
2022/12/31 11:07:45;;;;;;;8.13;6.07;;;;;;;;;;4927699;28;20288;-80
2022/12/31 11:10:30;;;;;;;6.40;5.70;;;;;;;;;;4939460;28;20252;-78
2022/12/31 11:13:01;;;;;;;6.27;5.60;;;;;;;;;;4939327;28;20205;-79
2022/12/31 11:15:33;;;;;;;8.60;6.30;;;;;;;;;;4944209;28;20185;-79
2022/12/31 11:18:16;;;;;;;6.77;6.00;;;;;;;;;;4976343;28;20659;-79
2022/12/31 11:20:59;;;;;;;6.77;5.50;;;;;;;;;;4979757;28;20196;-80
2022/12/31 11:23:35;;;;;;;8.03;5.70;;;;;;;;;;4980247;28;20187;-79
2022/12/31 11:26:20;;;;;;;7.03;5.53;;;;;;;;;;4977955;28;20197;-80
2022/12/31 11:28:52;;;;;;;8.80;6.17;;;;;;;;;;4966580;28;20175;-79
2022/12/31 11:31:22;;;;;;;8.00;6.23;;;;;;;;;;4990466;28;20964;-79
2022/12/31 11:34:09;;;;;;;8.27;5.87;;;;;;;;;;5040769;28;20260;-77
2022/12/31 11:36:38;;;;;;;7.13;5.77;;;;;;;;;;5039685;28;20184;-78
2022/12/31 11:39:04;;;;;;;6.53;5.77;;;;;;;;;;5045335;28;20197;-81
2022/12/31 11:41:39;;;;;;;5.87;5.27;;;;;;;;;;5048632;28;20189;-78
2022/12/31 11:44:11;;;;;;;7.93;5.67;;;;;;;;;;5045011;28;20645;-78
2022/12/31 11:46:43;;;;;;;6.43;5.33;;;;;;;;;;5049888;28;20185;-78
2022/12/31 11:49:09;;;;;;;8.03;5.83;;;;;;;;;;5043044;28;20289;-79
2022/12/31 11:51:38;;;;;;;9.17;5.60;;;;;;;;;;5039185;28;20213;-77
2022/12/31 11:54:23;;;;;;;7.83;5.50;;;;;;;;;;5038439;28;20271;-78
2022/12/31 11:57:12;;;;;;;6.07;5.03;;;;;;;;;;5040600;28;20197;-78
2022/12/31 11:59:38;;;;;;;8.87;5.93;;;;;;;;;;5030554;28;20227;-78
2022/12/31 12:02:19;;;;;;;9.20;5.40;;;;;;;;;;5048426;28;20658;-78
2022/12/31 12:04:47;;;;;;;7.60;5.33;;;;;;;;;;5050124;28;20196;-78
2022/12/31 12:07:15;;;;;;;7.63;5.67;;;;;;;;;;5040611;28;20709;-78
2022/12/31 12:09:42;;;;;;;6.47;5.20;;;;;;;;;;5040930;28;20189;-78
2022/12/31 12:12:08;;;;;;;8.00;5.80;;;;;;;;;;5039205;28;20213;-79
2022/12/31 12:14:38;;;;;;;6.60;5.33;;;;;;;;;;5044932;28;20190;-78
2022/12/31 12:17:08;;;;;;;7.20;5.87;;;;;;;;;;5042406;28;20181;-78
2022/12/31 12:19:41;;;;;;;8.27;5.43;;;;;;;;;;5044426;28;20194;-79
2022/12/31 12:22:26;;;;;;;7.00;5.77;;;;;;;;;;5044112;28;20220;-78
2022/12/31 12:24:56;;;;;;;7.63;5.63;;;;;;;;;;5054108;28;20177;-78
2022/12/31 12:27:26;;;;;;;6.40;5.40;;;;;;;;;;5074039;28;20181;-78
2022/12/31 12:29:52;;;;;;;6.07;5.37;;;;;;;;;;5043632;28;20229;-79
2022/12/31 12:32:20;;;;;;;5.83;5.13;;;;;;;;;;5043299;28;20206;-78
2022/12/31 12:34:46;;;;;;;7.30;6.30;;;;;;;;;;5051078;28;20264;-80
2022/12/31 12:37:24;;;;;;;7.23;6.07;;;;;;;;;;5048675;28;20732;-79
2022/12/31 12:40:01;;;;;;;6.30;5.37;;;;;;;;;;5043371;28;20185;-78
2022/12/31 12:42:28;;;;;;;6.13;5.03;;;;;;;;;;5046124;28;20248;-77
2022/12/31 12:45:13;;;;;;;6.23;4.73;;;;;;;;;;5051345;28;20786;-76
2022/12/31 12:47:41;;;;;;;9.40;5.03;;;;;;;;;;5047349;28;20263;-79
2022/12/31 12:50:13;;;;;;;5.83;5.00;;;;;;;;;;5057024;28;20230;-77
2022/12/31 12:52:45;;;;;;;7.37;5.03;;;;;;;;;;5047483;28;20656;-77
2022/12/31 12:55:37;;;;;;;6.57;5.27;;;;;;;;;;5048105;28;20181;-79
2022/12/31 12:58:06;;;;;;;6.83;5.47;;;;;;;;;;5020042;28;20352;-79
2022/12/31 13:00:35;;;;;;;7.80;5.20;;;;;;;;;;5035197;28;20193;-79
2022/12/31 13:03:01;;;;;;;7.40;5.63;;;;;;;;;;5022328;28;20416;-79
2022/12/31 13:05:33;;;;;;;5.90;4.97;;;;;;;;;;5038668;28;20193;-76
2022/12/31 13:08:11;;;;;;;6.30;4.83;;;;;;;;;;5038083;28;20515;-81
2022/12/31 13:10:40;;;;;;;5.87;5.27;;;;;;;;;;5040705;28;20678;-78
2022/12/31 13:13:15;;;;;;;8.07;5.13;;;;;;;;;;5021536;28;20202;-78
2022/12/31 13:15:45;;;;;;;6.43;5.13;;;;;;;;;;5040167;28;20200;-79
2022/12/31 13:18:29;;;;;;;5.90;4.97;;;;;;;;;;5022548;28;20201;-79
2022/12/31 13:21:00;;;;;;;6.23;5.37;;;;;;;;;;5039301;28;20698;-79
2022/12/31 13:23:49;;;;;;;6.23;5.57;;;;;;;;;;5035820;28;20196;-78
2022/12/31 13:26:21;;;;;;;7.17;5.57;;;;;;;;;;5034345;28;20202;-81
2022/12/31 13:28:49;;;;;;;6.90;5.77;;;;;;;;;;5036345;28;20216;-79
2022/12/31 13:31:18;;;;;;;8.43;6.10;;;;;;;;;;5014930;28;20229;-80
2022/12/31 13:34:11;;;;;;;9.13;5.83;;;;;;;;;;5035739;28;20182;-80
2022/12/31 13:36:39;;;;;;;7.50;5.63;;;;;;;;;;5040106;28;20186;-80
2022/12/31 13:39:10;;;;;;;6.93;6.17;;;;;;;;;;5045479;28;20189;-79
2022/12/31 13:41:39;;;;;;;9.97;6.27;;;;;;;;;;5049570;28;20265;-81
2022/12/31 13:44:13;;;;;;;11.07;6.03;;;;;;;;;;5042315;28;20275;-79
2022/12/31 13:46:58;;;;;;;10.03;6.50;;;;;;;;;;5051146;28;20261;-79
2022/12/31 13:49:32;;;;;;;9.27;6.40;;;;;;;;;;5040906;28;20665;-79
2022/12/31 13:52:14;;;;;;;7.23;5.97;;;;;;;;;;5040428;28;20208;-79
2022/12/31 13:54:56;;;;;;;7.73;6.03;;;;;;;;;;5041516;28;20209;-80
2022/12/31 13:57:51;;;;;;;6.67;5.33;;;;;;;;;;5041894;28;20284;-78
2022/12/31 14:00:22;;;;;;;8.77;5.80;;;;;;;;;;5041005;28;21060;-78
2022/12/31 14:03:00;;;;;;;6.50;5.53;;;;;;;;;;5039695;28;20190;-78
2022/12/31 14:05:56;;;;;;;9.13;5.87;;;;;;;;;;5048047;28;20193;-79
2022/12/31 14:08:22;;;;;;;6.93;5.77;;;;;;;;;;5013630;28;20193;-78
2022/12/31 14:10:50;;;;;;;6.43;5.50;;;;;;;;;;5024334;28;20292;-79
2022/12/31 14:13:22;;;;;;;7.97;5.77;;;;;;;;;;5035468;28;20197;-78
2022/12/31 14:16:07;;;;;;;8.37;5.60;;;;;;;;;;5023981;28;20254;-78
2022/12/31 14:18:45;;;;;;;6.13;5.10;;;;;;;;;;5023906;28;20189;-79
2022/12/31 14:21:19;;;;;;;7.97;5.83;;;;;;;;;;5040504;28;20258;-79
2022/12/31 14:24:06;;;;;;;9.37;6.27;;;;;;;;;;5027895;28;20280;-78
2022/12/31 14:26:32;;;;;;;9.20;5.93;;;;;;;;;;5047438;28;20189;-79
2022/12/31 14:29:10;;;;;;;6.43;5.73;;;;;;;;;;5035588;28;20189;-79
2022/12/31 14:31:42;;;;;;;7.80;5.80;;;;;;;;;;5027070;28;20225;-77
2022/12/31 14:34:08;;;;;;;7.27;5.53;;;;;;;;;;5059106;28;20185;-79
2022/12/31 14:36:34;;;;;;;7.17;5.77;;;;;;;;;;5042019;28;20240;-79
2022/12/31 14:39:09;;;;;;;6.70;5.17;;;;;;;;;;5044559;28;20197;-79
2022/12/31 14:41:38;;;;;;;7.10;5.60;;;;;;;;;;5044253;28;20622;-78
2022/12/31 14:44:04;;;;;;;6.83;5.30;;;;;;;;;;5041044;28;20189;-80
2022/12/31 14:46:38;;;;;;;8.03;5.40;;;;;;;;;;5040581;28;20197;-79
2022/12/31 14:49:23;;;;;;;5.60;4.97;;;;;;;;;;5054280;28;20800;-79
2022/12/31 14:51:49;;;;;;;8.63;5.50;;;;;;;;;;5057741;28;20242;-79
2022/12/31 14:54:25;;;;;;;9.03;6.00;;;;;;;;;;5038357;28;20185;-80
2022/12/31 14:56:51;;;;;;;6.77;5.20;;;;;;;;;;5049675;28;20212;-80